Strensall, United Kingdom
Current Conditions -  °F | °C
As of 5:50 PM on Friday 24 Oct 2014 (Local Time) from EGXU Reporting Station
Broken Clouds Broken Clouds  
Wind Chill: 54°   Ceiling: 19000
Heat Index: 54°   Visibility: 6mi
Dew Point: 45°   Wind: 6mph
Humidity: 72%   Direction: 260°W
Pressure: 29.83"   Gusts: NA
Location:  54.04°N, 1.04°W
Report Text: EGXU 241650Z AUTO 26005KT 9999 // FEW033/// SCT044/// BKN190/// 12/07 Q1010
Loading
Personal Weather Stations






























Interactive Weather Map
Tropical Storm Tracking
New forecast layout! Learn more

10-Day Weather Forecast

Advertisements
Track Severe Weather on mobile